Time;durP1;ratioP1;P1;durP2;ratioP2;P2;SDS_P1;SDS_P2;PMS_P1;PMS_P2;Temp;Humidity;BMP_temperature;BMP_pressure;BME280_temperature;BME280_humidity;BME280_pressure;Samples;Min_cycle;Max_cycle;Signal;HPM_P1;HPM_P2
2021/12/03 00:01:00;;;;;;;3.42;1.60;;;1.90;99.90;;;;;;20647051;28;20037;-44
2021/12/03 00:11:03;;;;;;;2.73;1.10;;;1.90;99.90;;;;;;20660364;28;20430;-45
2021/12/03 00:21:07;;;;;;;7.57;1.30;;;1.90;99.90;;;;;;20665724;28;20046;-44
2021/12/03 00:31:10;;;;;;;1.65;0.85;;;1.90;99.90;;;;;;20649332;28;20048;-44
2021/12/03 00:41:16;;;;;;;2.05;0.75;;;1.90;99.90;;;;;;20669436;28;20398;-44
2021/12/03 00:51:19;;;;;;;3.83;0.90;;;1.90;99.90;;;;;;20662000;28;20042;-44
2021/12/03 01:01:21;;;;;;;2.80;1.23;;;1.90;99.90;;;;;;20659695;28;20045;-44
2021/12/03 01:11:24;;;;;;;3.95;1.40;;;1.90;99.90;;;;;;20649610;28;20038;-44
2021/12/03 01:21:26;;;;;;;6.78;1.90;;;1.90;99.90;;;;;;20662550;28;20054;-44
2021/12/03 01:31:27;;;;;;;3.63;1.20;;;1.90;99.90;;;;;;20649341;28;20043;-44
2021/12/03 01:41:31;;;;;;;2.25;0.88;;;1.90;99.90;;;;;;20651812;28;20053;-44
2021/12/03 01:51:33;;;;;;;2.78;1.00;;;2.00;99.90;;;;;;20650067;28;20038;-44
2021/12/03 02:01:34;;;;;;;1.08;0.60;;;2.10;99.90;;;;;;20648218;28;20632;-44
2021/12/03 02:11:36;;;;;;;1.30;0.30;;;2.10;99.90;;;;;;20649926;28;20038;-44
2021/12/03 02:21:37;;;;;;;4.63;0.70;;;2.20;99.90;;;;;;20648822;28;20041;-44
2021/12/03 02:31:38;;;;;;;1.00;0.30;;;2.20;99.90;;;;;;20647358;28;20045;-44
2021/12/03 02:41:39;;;;;;;0.68;0.15;;;2.20;99.90;;;;;;20630493;28;20091;-44
2021/12/03 02:51:42;;;;;;;5.20;0.40;;;2.30;99.90;;;;;;20642782;28;20970;-44
2021/12/03 03:01:44;;;;;;;1.27;0.40;;;2.30;99.90;;;;;;20644600;28;21606;-44
2021/12/03 03:11:46;;;;;;;0.50;0.20;;;2.30;99.90;;;;;;20650185;28;20041;-45
2021/12/03 03:21:47;;;;;;;2.08;0.13;;;2.50;99.90;;;;;;20643883;28;20720;-45
2021/12/03 03:31:49;;;;;;;1.60;0.57;;;2.50;99.90;;;;;;20640861;28;20044;-44
2021/12/03 03:41:53;;;;;;;0.70;0.22;;;2.50;99.90;;;;;;20657298;28;20661;-44
2021/12/03 03:51:56;;;;;;;1.55;0.28;;;2.60;99.90;;;;;;20659457;28;20038;-44
2021/12/03 04:01:57;;;;;;;1.77;0.73;;;2.70;99.90;;;;;;20656125;28;20046;-44
2021/12/03 04:11:59;;;;;;;1.05;0.32;;;2.70;99.90;;;;;;20656388;28;20069;-44
2021/12/03 04:22:00;;;;;;;2.88;0.40;;;2.80;99.90;;;;;;20657916;28;20050;-44
2021/12/03 04:32:01;;;;;;;1.35;0.32;;;3.00;99.90;;;;;;20655096;28;20042;-44
2021/12/03 04:42:03;;;;;;;2.47;0.50;;;3.10;99.90;;;;;;20661940;28;20718;-44
2021/12/03 04:52:05;;;;;;;0.75;0.40;;;3.20;99.90;;;;;;20653853;28;20042;-44
2021/12/03 05:02:06;;;;;;;1.58;0.60;;;3.10;99.90;;;;;;20652771;28;20042;-44
2021/12/03 05:12:08;;;;;;;2.05;0.73;;;3.10;99.90;;;;;;20656928;28;20391;-44
2021/12/03 05:22:09;;;;;;;2.40;0.75;;;3.20;99.90;;;;;;20654673;28;20045;-44
2021/12/03 05:32:11;;;;;;;3.85;0.57;;;3.20;99.90;;;;;;20651183;28;20038;-44
2021/12/03 05:42:12;;;;;;;1.33;0.63;;;3.40;99.90;;;;;;20651083;28;20125;-44
2021/12/03 05:52:13;;;;;;;2.63;1.00;;;3.40;99.90;;;;;;20650968;28;20470;-44
2021/12/03 06:02:14;;;;;;;6.47;1.30;;;3.30;99.90;;;;;;20631009;28;20061;-44
2021/12/03 06:12:15;;;;;;;5.63;2.00;;;3.30;99.90;;;;;;20657078;28;20034;-44
2021/12/03 06:22:17;;;;;;;11.95;1.73;;;3.30;99.90;;;;;;20649573;28;20034;-44
2021/12/03 06:32:18;;;;;;;6.45;1.40;;;3.50;99.90;;;;;;20643089;28;20041;-44
2021/12/03 06:42:19;;;;;;;6.25;1.35;;;3.70;99.90;;;;;;20650845;28;20037;-44
2021/12/03 06:52:20;;;;;;;4.32;1.63;;;3.70;99.90;;;;;;20644680;28;20103;-44
2021/12/03 07:02:22;;;;;;;5.72;1.75;;;3.80;99.90;;;;;;20641958;28;20482;-44
2021/12/03 07:12:23;;;;;;;9.13;1.70;;;3.80;99.90;;;;;;20623958;28;20490;-44
2021/12/03 07:22:26;;;;;;;10.05;1.67;;;3.80;99.90;;;;;;20659806;28;20038;-44
2021/12/03 07:32:29;;;;;;;5.78;1.52;;;3.80;99.90;;;;;;20655772;28;20483;-44
2021/12/03 07:42:32;;;;;;;6.55;2.08;;;3.80;99.90;;;;;;20658357;28;20502;-44
2021/12/03 07:52:35;;;;;;;7.43;1.40;;;3.80;99.90;;;;;;20656156;28;20038;-44
2021/12/03 08:02:36;;;;;;;8.02;1.00;;;3.80;99.90;;;;;;20653348;28;20042;-44
2021/12/03 08:12:42;;;;;;;3.08;1.05;;;3.70;99.90;;;;;;20657206;28;20041;-44
2021/12/03 08:22:43;;;;;;;4.50;1.23;;;3.70;99.90;;;;;;20635193;28;20326;-44
2021/12/03 08:32:45;;;;;;;4.32;1.08;;;3.70;99.90;;;;;;20656631;28;20031;-44
2021/12/03 08:42:46;;;;;;;4.40;1.20;;;3.60;99.90;;;;;;20675274;28;20057;-45
2021/12/03 09:03:06;;;;;;;5.35;1.58;;;3.80;99.90;;;;;;20673487;28;20049;-44
2021/12/03 09:13:07;;;;;;;4.22;1.55;;;3.80;99.90;;;;;;20674157;28;20091;-45
2021/12/03 09:23:18;;;;;;;5.47;2.10;;;3.90;99.90;;;;;;20655012;28;20458;-44
2021/12/03 09:33:22;;;;;;;6.38;1.30;;;4.00;99.90;;;;;;20671076;28;20042;-45
2021/12/03 09:43:23;;;;;;;7.82;1.77;;;4.10;99.90;;;;;;20670459;28;20057;-44
2021/12/03 09:53:44;;;;;;;3.00;1.65;;;4.10;99.90;;;;;;20669299;28;20586;-44
2021/12/03 10:04:41;;;;;;;3.58;1.10;;;4.20;99.90;;;;;;20672245;28;20312;-44
2021/12/03 10:15:17;;;;;;;6.38;1.92;;;4.30;99.90;;;;;;20653121;28;21454;-44
2021/12/03 10:45:41;;;;;;;2.27;1.20;;;4.10;99.90;;;;;;20640395;28;20042;-44
2021/12/03 11:37:18;;;;;;;3.25;1.23;;;4.30;99.90;;;;;;20644871;28;20423;-44
2021/12/03 13:11:19;;;;;;;3.53;1.10;;;5.20;99.90;;;;;;20654430;28;20044;-44
2021/12/03 14:54:27;;;;;;;3.80;1.80;;;4.60;99.90;;;;;;20646007;28;20070;-44
2021/12/03 16:16:40;;;;;;;4.75;1.95;;;4.80;99.90;;;;;;20658843;28;20044;-44
2021/12/03 16:47:31;;;;;;;7.18;2.28;;;5.00;99.90;;;;;;20654819;28;20093;-44
2021/12/03 16:57:34;;;;;;;10.00;3.53;;;4.90;99.90;;;;;;20664955;28;20050;-44
2021/12/03 17:48:46;;;;;;;10.38;3.53;;;5.10;99.90;;;;;;20659938;28;20057;-44
2021/12/03 17:59:01;;;;;;;8.15;3.40;;;4.90;99.90;;;;;;20662584;28;21890;-44
2021/12/03 18:43:13;;;;;;;11.82;3.38;;;5.00;99.90;;;;;;20656076;28;20049;-44
2021/12/03 19:00:48;;;;;;;9.20;3.67;;;5.10;99.90;;;;;;20675905;28;20057;-44
2021/12/03 19:10:52;;;;;;;7.88;3.85;;;5.00;99.90;;;;;;20633267;28;20042;-45
2021/12/03 19:20:54;;;;;;;9.75;3.88;;;5.00;99.90;;;;;;20660566;28;20038;-44
2021/12/03 19:30:56;;;;;;;9.45;3.95;;;5.00;99.90;;;;;;20626938;28;20040;-44
2021/12/03 19:41:01;;;;;;;8.63;3.97;;;5.00;99.90;;;;;;20665018;28;20045;-44
2021/12/03 19:51:11;;;;;;;10.68;4.10;;;5.00;99.90;;;;;;20662178;28;20037;-44
2021/12/03 20:01:13;;;;;;;10.25;4.25;;;4.90;99.90;;;;;;20666531;28;20042;-47
2021/12/03 20:11:14;;;;;;;11.05;4.25;;;4.90;99.90;;;;;;20662883;28;20053;-44
2021/12/03 20:21:17;;;;;;;10.77;4.50;;;5.00;99.90;;;;;;20670314;28;20049;-45
2021/12/03 20:31:23;;;;;;;9.68;3.25;;;4.90;99.90;;;;;;20677462;28;20049;-44
2021/12/03 21:22:23;;;;;;;;;;;4.90;99.90;;;;;;20662437;28;20042;-44
2021/12/03 21:32:33;;;;;;;11.63;3.38;;;4.90;99.90;;;;;;20650346;28;19925;-44
2021/12/03 21:42:35;;;;;;;8.00;2.92;;;4.90;99.90;;;;;;20654408;28;20058;-44
2021/12/03 21:52:39;;;;;;;6.40;2.40;;;4.90;99.90;;;;;;20654216;28;20517;-44
2021/12/03 22:02:45;;;;;;;10.05;2.92;;;5.00;99.90;;;;;;20654657;28;20053;-44
2021/12/03 22:12:47;;;;;;;11.98;3.75;;;4.90;99.90;;;;;;20608924;28;20034;-44
2021/12/03 22:22:48;;;;;;;8.63;2.72;;;4.90;99.90;;;;;;20647883;28;20047;-44
2021/12/03 22:32:49;;;;;;;10.48;3.03;;;4.90;99.90;;;;;;20627778;28;20049;-44
2021/12/03 22:42:50;;;;;;;8.50;3.03;;;4.90;99.90;;;;;;20629501;28;20534;-44
2021/12/03 22:52:51;;;;;;;8.07;2.83;;;5.00;99.90;;;;;;20642357;28;20046;-44
2021/12/03 23:02:53;;;;;;;8.20;2.10;;;4.90;99.90;;;;;;20646408;28;20042;-44
2021/12/03 23:12:54;;;;;;;7.78;3.00;;;4.90;99.90;;;;;;20645654;28;20038;-44
2021/12/03 23:22:55;;;;;;;7.63;2.85;;;4.90;99.90;;;;;;20641101;28;20042;-44
2021/12/03 23:32:57;;;;;;;8.88;2.50;;;4.80;99.90;;;;;;20639909;28;20030;-44
2021/12/03 23:42:58;;;;;;;7.88;2.83;;;4.80;99.90;;;;;;20645655;28;20061;-44
2021/12/03 23:52:59;;;;;;;8.90;3.65;;;4.90;99.90;;;;;;20609509;28;20038;-44
